createdAt,value
2022-12-12T00:00:32.037Z,98848.30
2022-12-12T00:03:23.846Z,98849.08
2022-12-12T00:05:56.961Z,98848.17
2022-12-12T00:08:28.800Z,98850.84
2022-12-12T00:11:00.657Z,98848.88
2022-12-12T00:13:32.580Z,98848.27
2022-12-12T00:16:05.424Z,98847.89
2022-12-12T00:18:38.643Z,98841.94
2022-12-12T00:21:16.120Z,98838.00
2022-12-12T00:23:47.962Z,98835.95
2022-12-12T00:26:21.162Z,98830.40
2022-12-12T00:28:53.354Z,98826.45
2022-12-12T00:31:25.297Z,98826.86
2022-12-12T00:33:57.233Z,98832.86
2022-12-12T00:36:30.845Z,98832.98
2022-12-12T00:39:02.813Z,98838.16
2022-12-12T00:41:34.601Z,98844.39
2022-12-12T00:44:06.393Z,98839.26
2022-12-12T00:46:38.299Z,98837.73
2022-12-12T00:49:10.797Z,98833.01
2022-12-12T00:51:42.640Z,98827.88
2022-12-12T00:54:14.641Z,98831.21
2022-12-12T00:56:46.710Z,98838.68
2022-12-12T00:59:19.973Z,98835.73
2022-12-12T01:01:51.735Z,98833.44
2022-12-12T01:04:23.793Z,98827.20
2022-12-12T01:06:55.491Z,98818.12
2022-12-12T01:09:27.274Z,98815.95
2022-12-12T01:11:59.022Z,98814.19
2022-12-12T01:14:31.239Z,98810.61
2022-12-12T01:17:02.976Z,98809.48
2022-12-12T01:19:34.863Z,98808.52
2022-12-12T01:22:06.546Z,98803.83
2022-12-12T01:24:38.171Z,98800.40
2022-12-12T01:27:10.322Z,98796.83
2022-12-12T01:29:42.223Z,98797.28
2022-12-12T01:32:14.164Z,98793.29
2022-12-12T01:34:45.746Z,98793.65
2022-12-12T01:37:17.381Z,98796.39
2022-12-12T01:39:49.219Z,98788.84
2022-12-12T01:42:21.658Z,98784.33
2022-12-12T01:44:54.443Z,98779.44
2022-12-12T01:47:27.251Z,98779.74
2022-12-12T01:50:01.461Z,98777.54
2022-12-12T01:52:35.992Z,98775.95
2022-12-12T01:55:09.656Z,98773.13
2022-12-12T01:57:44.805Z,98774.03
2022-12-12T02:00:17.142Z,98776.72
2022-12-12T02:02:49.868Z,98775.77
2022-12-12T02:05:25.775Z,98776.89
2022-12-12T02:07:58.822Z,98777.79
2022-12-12T02:10:31.425Z,98778.68
2022-12-12T02:13:04.796Z,98782.98
2022-12-12T02:15:44.362Z,98780.77
2022-12-12T02:18:20.369Z,98778.97
2022-12-12T02:21:04.088Z,98776.25
2022-12-12T02:24:01.950Z,98773.79
2022-12-12T02:26:48.156Z,98771.82
2022-12-12T02:29:39.505Z,98769.56
2022-12-12T02:32:14.820Z,98770.48
2022-12-12T02:34:51.397Z,98772.00
2022-12-12T02:37:27.508Z,98780.06
2022-12-12T02:40:05.688Z,98783.48
2022-12-12T02:42:41.911Z,98783.09
2022-12-12T02:45:16.125Z,98783.63
2022-12-12T02:47:50.619Z,98780.62
2022-12-12T02:50:24.523Z,98781.06
2022-12-12T02:52:56.840Z,98780.23
2022-12-12T02:55:32.587Z,98785.26
2022-12-12T02:58:08.493Z,98787.17
2022-12-12T03:00:43.931Z,98791.02
2022-12-12T03:03:42.501Z,98792.33
2022-12-12T03:06:41.230Z,98788.06
2022-12-12T03:09:17.975Z,98785.35
2022-12-12T03:11:57.631Z,98782.39
2022-12-12T03:14:36.632Z,98780.45
2022-12-12T03:17:12.830Z,98777.87
2022-12-12T03:19:48.619Z,98771.38
2022-12-12T03:22:26.520Z,98766.33
2022-12-12T03:25:02.900Z,98765.36
2022-12-12T03:27:39.522Z,98766.57
2022-12-12T03:30:13.672Z,98766.41
2022-12-12T03:32:48.667Z,98766.36
2022-12-12T03:35:22.679Z,98761.08
2022-12-12T03:37:56.861Z,98759.61
2022-12-12T03:40:30.256Z,98757.69
2022-12-12T03:43:04.382Z,98757.48
2022-12-12T03:45:38.797Z,98757.73
2022-12-12T03:48:15.099Z,98759.63
2022-12-12T03:50:51.053Z,98760.20
2022-12-12T03:53:26.501Z,98757.95
2022-12-12T03:56:01.236Z,98757.70
2022-12-12T03:58:35.386Z,98758.48
2022-12-12T04:01:11.310Z,98758.05
2022-12-12T04:03:51.120Z,98758.73
2022-12-12T04:06:28.884Z,98755.11
2022-12-12T04:09:20.151Z,98755.21
2022-12-12T04:12:15.807Z,98753.19
2022-12-12T04:14:58.522Z,98751.81
2022-12-12T04:17:34.090Z,98745.84
2022-12-12T04:20:28.178Z,98740.90
2022-12-12T04:23:18.893Z,98739.71
2022-12-12T04:26:13.174Z,98736.30
2022-12-12T04:28:48.719Z,98732.86
2022-12-12T04:31:22.958Z,98732.27
2022-12-12T04:33:56.747Z,98730.39
2022-12-12T04:36:29.279Z,98731.59
2022-12-12T04:39:02.264Z,98729.31
2022-12-12T04:41:36.359Z,98726.55
2022-12-12T04:44:12.097Z,98725.08
2022-12-12T04:46:44.600Z,98725.02
2022-12-12T04:49:19.835Z,98727.32
2022-12-12T04:51:54.682Z,98727.42
2022-12-12T04:54:30.534Z,98728.46
2022-12-12T04:57:03.420Z,98723.98
2022-12-12T04:59:35.810Z,98721.46
2022-12-12T05:02:11.459Z,98724.00
2022-12-12T05:04:47.957Z,98722.45
2022-12-12T05:07:23.192Z,98721.86
2022-12-12T05:09:55.295Z,98720.38
2022-12-12T05:12:27.177Z,98718.80
2022-12-12T05:14:58.974Z,98715.23
2022-12-12T05:17:35.215Z,98716.52
2022-12-12T05:20:07.629Z,98714.35
2022-12-12T05:22:39.389Z,98711.65
2022-12-12T05:25:11.953Z,98712.95
2022-12-12T05:27:44.178Z,98709.33
2022-12-12T05:30:16.728Z,98705.77
2022-12-12T05:32:48.575Z,98709.70
2022-12-12T05:35:20.530Z,98708.65
2022-12-12T05:37:52.530Z,98706.33
2022-12-12T05:40:24.424Z,98703.48
2022-12-12T05:42:57.118Z,98701.27
2022-12-12T05:45:29.077Z,98700.60
2022-12-12T05:48:00.921Z,98701.88
2022-12-12T05:50:32.747Z,98701.37
2022-12-12T05:53:04.311Z,98699.77
2022-12-12T05:55:36.928Z,98696.75
2022-12-12T05:58:08.838Z,98692.89
2022-12-12T06:00:40.993Z,98691.98
2022-12-12T06:03:13.065Z,98698.13
2022-12-12T06:05:45.215Z,98699.92
2022-12-12T06:08:20.946Z,98699.67
2022-12-12T06:10:56.118Z,98701.26
2022-12-12T06:13:27.851Z,98707.19
2022-12-12T06:15:59.586Z,98710.65
2022-12-12T06:18:32.064Z,98708.64
2022-12-12T06:21:08.580Z,98709.88
2022-12-12T06:23:41.328Z,98710.46
2022-12-12T06:26:14.474Z,98715.21
2022-12-12T06:28:47.046Z,98718.30
2022-12-12T06:31:19.025Z,98715.88
2022-12-12T06:33:50.558Z,98717.62
2022-12-12T06:36:25.884Z,98721.81
2022-12-12T06:38:59.482Z,98720.91
2022-12-12T06:41:32.203Z,98722.83
2022-12-12T06:44:04.742Z,98725.14
2022-12-12T06:46:36.923Z,98723.17
2022-12-12T06:49:10.247Z,98719.02
2022-12-12T06:51:44.626Z,98716.90
2022-12-12T06:54:18.702Z,98717.16
2022-12-12T06:56:50.881Z,98717.52
2022-12-12T06:59:22.792Z,98720.76
2022-12-12T07:01:56.488Z,98718.48
2022-12-12T07:04:28.570Z,98719.96
2022-12-12T07:07:00.334Z,98720.55
2022-12-12T07:09:32.053Z,98717.85
2022-12-12T07:12:04.004Z,98718.41
2022-12-12T07:14:35.929Z,98719.38
2022-12-12T07:17:07.688Z,98720.88
2022-12-12T07:19:39.826Z,98726.20
2022-12-12T07:22:11.624Z,98725.05
2022-12-12T07:24:43.379Z,98727.79
2022-12-12T07:27:20.094Z,98725.94
2022-12-12T07:29:54.108Z,98728.84
2022-12-12T07:32:25.964Z,98728.17
2022-12-12T07:34:58.212Z,98730.46
2022-12-12T07:37:29.857Z,98732.67
2022-12-12T07:40:02.123Z,98734.63
2022-12-12T07:42:33.815Z,98731.47
2022-12-12T07:45:05.615Z,98733.87
2022-12-12T07:47:37.188Z,98734.52
2022-12-12T07:50:10.059Z,98733.98
2022-12-12T07:52:42.031Z,98731.50
2022-12-12T07:55:14.188Z,98736.03
2022-12-12T07:57:47.154Z,98733.27
2022-12-12T08:00:20.443Z,98733.52
2022-12-12T08:02:52.652Z,98738.04
2022-12-12T08:05:24.829Z,98738.73
2022-12-12T08:07:56.575Z,98733.14
2022-12-12T08:10:28.128Z,98730.83
2022-12-12T08:13:00.099Z,98734.69
2022-12-12T08:15:32.249Z,98734.33
2022-12-12T08:18:03.964Z,98736.18
2022-12-12T08:20:35.535Z,98737.02
2022-12-12T08:23:07.571Z,98736.62
2022-12-12T08:25:39.465Z,98736.15
2022-12-12T08:28:10.968Z,98737.45
2022-12-12T08:30:42.845Z,98738.79
2022-12-12T08:33:14.614Z,98740.20
2022-12-12T08:35:46.689Z,98740.96
2022-12-12T08:38:18.380Z,98743.88
2022-12-12T08:40:50.394Z,98738.40
2022-12-12T08:43:22.175Z,98738.42
2022-12-12T08:45:53.776Z,98738.41
2022-12-12T08:48:26.030Z,98739.34
2022-12-12T08:50:58.735Z,98745.34
2022-12-12T08:53:31.312Z,98744.42
2022-12-12T08:56:02.930Z,98743.83
2022-12-12T08:58:34.716Z,98746.98
2022-12-12T09:01:10.930Z,98746.09
2022-12-12T09:03:42.837Z,98741.31
2022-12-12T09:06:14.722Z,98744.28
2022-12-12T09:08:46.955Z,98742.06
2022-12-12T09:11:19.328Z,98742.67
2022-12-12T09:13:51.297Z,98742.80
2022-12-12T09:16:26.134Z,98744.05
2022-12-12T09:18:58.195Z,98743.49
2022-12-12T09:21:30.642Z,98741.51
2022-12-12T09:24:03.002Z,98736.48
2022-12-12T09:26:34.916Z,98740.41
2022-12-12T09:29:07.595Z,98739.81
2022-12-12T09:31:39.220Z,98735.81
2022-12-12T09:34:10.784Z,98740.94
2022-12-12T09:36:42.771Z,98740.45
2022-12-12T09:39:15.129Z,98737.33
2022-12-12T09:41:46.992Z,98737.46
2022-12-12T09:44:22.937Z,98741.61
2022-12-12T09:46:57.929Z,98743.80
2022-12-12T09:49:41.519Z,98751.27
2022-12-12T09:52:17.497Z,98751.30
2022-12-12T09:54:49.200Z,98755.02
2022-12-12T09:57:26.813Z,98756.52
2022-12-12T10:00:03.838Z,98760.27
2022-12-12T10:02:46.345Z,98759.81
2022-12-12T10:05:23.695Z,98757.06
2022-12-12T10:07:59.502Z,98757.48
2022-12-12T10:10:33.705Z,98757.66
2022-12-12T10:13:06.660Z,98755.27
2022-12-12T10:15:40.823Z,98751.90
2022-12-12T10:18:16.685Z,98754.32
2022-12-12T10:20:51.336Z,98757.95
2022-12-12T10:23:26.663Z,98756.58
2022-12-12T10:25:58.943Z,98756.39
2022-12-12T10:28:33.251Z,98754.41
2022-12-12T10:31:11.290Z,98753.73
2022-12-12T10:33:49.704Z,98753.77
2022-12-12T10:36:27.347Z,98751.52
2022-12-12T10:39:08.096Z,98755.65
2022-12-12T10:41:44.938Z,98755.52
2022-12-12T10:44:21.723Z,98754.69
2022-12-12T10:46:58.473Z,98754.88
2022-12-12T10:49:30.895Z,98757.09
2022-12-12T10:52:06.800Z,98757.82
2022-12-12T10:54:43.862Z,98754.39
2022-12-12T10:57:20.157Z,98752.27
2022-12-12T10:59:53.869Z,98755.44
2022-12-12T11:02:28.456Z,98757.96
2022-12-12T11:05:09.020Z,98757.94
2022-12-12T11:07:41.503Z,98756.50
2022-12-12T11:10:26.846Z,98757.63
2022-12-12T11:13:03.540Z,98754.50
2022-12-12T11:15:47.128Z,98754.52
2022-12-12T11:18:20.389Z,98755.85
2022-12-12T11:20:53.762Z,98758.12
2022-12-12T11:23:27.407Z,98757.30
2022-12-12T11:26:00.744Z,98760.80
2022-12-12T11:28:35.386Z,98761.39
2022-12-12T11:31:09.032Z,98757.45
2022-12-12T11:33:43.691Z,98761.86
2022-12-12T11:36:17.231Z,98761.10
2022-12-12T11:38:51.399Z,98759.96
2022-12-12T11:41:23.763Z,98760.15
2022-12-12T11:44:00.657Z,98766.14
2022-12-12T11:46:33.970Z,98764.65
2022-12-12T11:49:06.865Z,98766.70
2022-12-12T11:51:40.504Z,98768.61
2022-12-12T11:54:15.169Z,98768.41
2022-12-12T11:56:52.737Z,98770.89
2022-12-12T11:59:37.255Z,98769.08
2022-12-12T12:02:22.591Z,98771.32
2022-12-12T12:05:00.371Z,98771.50
2022-12-12T12:07:45.491Z,98773.24
2022-12-12T12:10:24.273Z,98774.52
2022-12-12T12:13:01.863Z,98776.66
2022-12-12T12:15:40.198Z,98778.59
2022-12-12T12:18:31.303Z,98779.77
2022-12-12T12:21:12.198Z,98781.47
2022-12-12T12:23:50.674Z,98782.45
2022-12-12T12:26:26.731Z,98788.88
2022-12-12T12:29:10.632Z,98788.36
2022-12-12T12:31:47.680Z,98786.44
2022-12-12T12:34:23.791Z,98784.52
2022-12-12T12:37:03.550Z,98783.36
2022-12-12T12:39:42.768Z,98782.94
2022-12-12T12:42:20.987Z,98783.93
2022-12-12T12:44:56.813Z,98786.82
2022-12-12T12:47:37.159Z,98786.41
2022-12-12T12:50:18.026Z,98790.49
2022-12-12T12:52:55.295Z,98790.86
2022-12-12T12:55:32.360Z,98788.68
2022-12-12T12:58:06.875Z,98788.95
2022-12-12T13:00:39.435Z,98792.70
2022-12-12T13:03:15.294Z,98790.98
2022-12-12T13:05:50.141Z,98791.52
2022-12-12T13:08:26.333Z,98793.69
2022-12-12T13:11:01.713Z,98794.58
2022-12-12T13:13:34.518Z,98794.79
2022-12-12T13:16:09.839Z,98797.73
2022-12-12T13:18:46.252Z,98802.14
2022-12-12T13:21:22.776Z,98800.87
2022-12-12T13:23:58.327Z,98803.50
2022-12-12T13:26:35.494Z,98802.83
2022-12-12T13:29:15.692Z,98804.60
2022-12-12T13:32:07.115Z,98810.83
2022-12-12T13:34:41.067Z,98812.17
2022-12-12T13:37:14.648Z,98814.58
2022-12-12T13:39:46.864Z,98813.65
2022-12-12T13:42:19.160Z,98817.58
2022-12-12T13:44:51.222Z,98818.80
2022-12-12T13:47:47.658Z,98821.19
2022-12-12T13:50:23.302Z,98820.52
2022-12-12T13:53:23.855Z,98823.11
2022-12-12T13:56:22.174Z,98828.73
2022-12-12T13:58:54.091Z,98826.55
2022-12-12T14:01:40.762Z,98830.72
2022-12-12T14:04:26.057Z,98829.18
2022-12-12T14:07:05.558Z,98831.41
2022-12-12T14:09:50.601Z,98833.16
2022-12-12T14:12:31.109Z,98833.37
2022-12-12T14:15:06.199Z,98836.16
2022-12-12T14:17:42.550Z,98839.03
2022-12-12T14:20:25.641Z,98840.52
2022-12-12T14:23:25.627Z,98843.83
2022-12-12T14:25:58.858Z,98843.02
2022-12-12T14:28:32.443Z,98845.23
2022-12-12T14:31:09.801Z,98844.95
2022-12-12T14:33:54.925Z,98849.08
2022-12-12T14:36:37.204Z,98843.27
2022-12-12T14:39:14.850Z,98843.55
2022-12-12T14:41:47.520Z,98845.17
2022-12-12T14:44:38.181Z,98842.49
2022-12-12T14:47:11.774Z,98847.45
2022-12-12T14:49:43.920Z,98844.93
2022-12-12T14:52:18.564Z,98846.11
2022-12-12T14:54:51.006Z,98844.70
2022-12-12T14:57:24.689Z,98845.96
2022-12-12T14:59:56.479Z,98850.63
2022-12-12T15:02:31.348Z,98849.27
2022-12-12T15:05:05.643Z,98854.01
2022-12-12T15:07:38.847Z,98860.40
2022-12-12T15:10:23.964Z,98862.39
2022-12-12T15:12:56.612Z,98864.14
2022-12-12T15:15:29.602Z,98870.02
2022-12-12T15:18:02.458Z,98876.81
2022-12-12T15:20:34.461Z,98873.84
2022-12-12T15:23:07.676Z,98874.09
2022-12-12T15:25:40.937Z,98878.63
2022-12-12T15:28:17.362Z,98876.19
2022-12-12T15:30:52.302Z,98880.75
2022-12-12T15:33:25.278Z,98880.53
2022-12-12T15:36:01.773Z,98878.98
2022-12-12T15:38:35.952Z,98878.83
2022-12-12T15:41:13.334Z,98879.27
2022-12-12T15:43:45.639Z,98877.08
2022-12-12T15:46:17.837Z,98874.16
2022-12-12T15:48:50.708Z,98873.77
2022-12-12T15:51:25.327Z,98875.18
2022-12-12T15:53:58.290Z,98880.79
2022-12-12T15:56:30.886Z,98881.73
2022-12-12T15:59:17.079Z,98881.80
2022-12-12T16:01:49.372Z,98878.96
2022-12-12T16:04:26.108Z,98883.46
2022-12-12T16:07:16.121Z,98888.14
2022-12-12T16:10:00.560Z,98892.61
2022-12-12T16:12:49.713Z,98895.69
2022-12-12T16:15:22.988Z,98895.70
2022-12-12T16:18:02.608Z,98894.27
2022-12-12T16:20:35.540Z,98899.60
2022-12-12T16:23:21.392Z,98904.27
2022-12-12T16:25:53.324Z,98908.13
2022-12-12T16:28:26.251Z,98910.55
2022-12-12T16:30:59.061Z,98910.70
2022-12-12T16:33:32.958Z,98909.30
2022-12-12T16:36:06.435Z,98912.73
2022-12-12T16:38:40.441Z,98912.36
2022-12-12T16:41:14.672Z,98913.84
2022-12-12T16:43:46.352Z,98914.95
2022-12-12T16:46:19.448Z,98917.85
2022-12-12T16:48:52.209Z,98919.30
2022-12-12T16:51:28.133Z,98922.61
2022-12-12T16:54:01.068Z,98928.69
2022-12-12T16:56:33.102Z,98927.77
2022-12-12T16:59:05.103Z,98929.82
2022-12-12T17:01:39.052Z,98929.77
2022-12-12T17:04:17.407Z,98931.85
2022-12-12T17:06:49.230Z,98934.75
2022-12-12T17:09:26.801Z,98941.98
2022-12-12T17:12:01.991Z,98944.48
2022-12-12T17:14:34.230Z,98951.54
2022-12-12T17:17:07.021Z,98943.81
2022-12-12T17:19:39.329Z,98939.79
2022-12-12T17:22:11.472Z,98945.08
2022-12-12T17:24:43.890Z,98950.34
2022-12-12T17:27:15.796Z,98956.64
2022-12-12T17:29:48.848Z,98961.92
2022-12-12T17:32:24.397Z,98963.38
2022-12-12T17:34:56.806Z,98965.61
2022-12-12T17:37:30.784Z,98968.97
2022-12-12T17:40:06.741Z,98965.73
2022-12-12T17:42:43.733Z,98973.14
2022-12-12T17:45:21.905Z,98973.17
2022-12-12T17:47:54.575Z,98978.48
2022-12-12T17:50:27.704Z,98977.45
2022-12-12T17:53:00.539Z,98981.84
2022-12-12T17:55:54.695Z,98983.98
2022-12-12T17:58:33.646Z,98984.27
2022-12-12T18:01:12.040Z,98990.61
2022-12-12T18:03:45.444Z,98991.75
2022-12-12T18:06:19.636Z,98991.58
2022-12-12T18:08:52.866Z,98997.35
2022-12-12T18:11:27.857Z,98998.27
2022-12-12T18:14:02.708Z,99002.20
2022-12-12T18:16:36.314Z,99001.81
2022-12-12T18:19:08.385Z,99000.97
2022-12-12T18:24:35.014Z,99002.10
2022-12-12T18:27:07.681Z,99007.56
2022-12-12T18:29:44.512Z,99011.15
2022-12-12T18:32:19.054Z,99008.52
2022-12-12T18:34:54.950Z,99012.23
2022-12-12T18:37:28.608Z,99018.05
2022-12-12T18:40:00.842Z,99021.61
2022-12-12T18:42:36.290Z,99021.40
2022-12-12T18:45:17.746Z,99021.81
2022-12-12T18:47:50.839Z,99023.33
2022-12-12T18:50:25.568Z,99029.29
2022-12-12T18:53:04.460Z,99030.42
2022-12-12T18:55:37.468Z,99033.00
2022-12-12T18:58:14.932Z,99039.57
2022-12-12T19:00:49.009Z,99046.04
2022-12-12T19:03:22.696Z,99049.71
2022-12-12T19:06:04.362Z,99049.13
2022-12-12T19:08:39.164Z,99054.44
2022-12-12T19:11:13.774Z,99061.13
2022-12-12T19:13:50.205Z,99065.12
2022-12-12T19:16:24.621Z,99064.69
2022-12-12T19:19:02.372Z,99064.35
2022-12-12T19:21:39.944Z,99068.86
2022-12-12T19:24:14.708Z,99070.77
2022-12-12T19:26:51.684Z,99072.59
2022-12-12T19:29:28.923Z,99073.30
2022-12-12T19:32:04.819Z,99072.08
2022-12-12T19:34:40.195Z,99078.01
2022-12-12T19:37:15.489Z,99082.57
2022-12-12T19:39:53.294Z,99081.24
2022-12-12T19:42:30.235Z,99080.55
2022-12-12T19:45:05.613Z,99090.23
2022-12-12T19:47:40.550Z,99092.58
2022-12-12T19:50:16.894Z,99096.58
2022-12-12T19:52:52.258Z,99099.52
2022-12-12T19:55:31.242Z,99099.23
2022-12-12T19:58:08.940Z,99105.20
2022-12-12T20:00:42.574Z,99110.70
2022-12-12T20:03:18.278Z,99112.42
2022-12-12T20:06:03.411Z,99115.98
2022-12-12T20:08:38.098Z,99118.95
2022-12-12T20:11:12.900Z,99118.04
2022-12-12T20:13:52.133Z,99119.25
2022-12-12T20:16:29.135Z,99124.88
2022-12-12T20:19:10.071Z,99129.02
2022-12-12T20:22:02.437Z,99129.86
2022-12-12T20:24:40.567Z,99132.58
2022-12-12T20:27:16.964Z,99137.11
2022-12-12T20:29:55.321Z,99144.46
2022-12-12T20:32:31.500Z,99148.27
2022-12-12T20:35:04.212Z,99150.41
2022-12-12T20:37:37.406Z,99152.42
2022-12-12T20:40:14.896Z,99152.85
2022-12-12T20:42:57.169Z,99156.27
2022-12-12T20:45:34.490Z,99158.67
2022-12-12T20:48:08.096Z,99161.02
2022-12-12T20:50:42.571Z,99161.75
2022-12-12T20:53:18.822Z,99163.94
2022-12-12T20:55:53.041Z,99169.66
2022-12-12T20:58:27.069Z,99173.09
2022-12-12T21:00:59.675Z,99174.51
2022-12-12T21:03:35.285Z,99175.33
2022-12-12T21:06:14.501Z,99182.02
2022-12-12T21:08:48.696Z,99185.20
2022-12-12T21:11:23.173Z,99190.77
2022-12-12T21:13:55.619Z,99189.84
2022-12-12T21:16:28.704Z,99187.32
2022-12-12T21:19:02.694Z,99188.77
2022-12-12T21:21:35.201Z,99189.84
2022-12-12T21:24:08.933Z,99196.30
2022-12-12T21:26:41.412Z,99197.96
2022-12-12T21:29:13.763Z,99198.48
2022-12-12T21:31:51.628Z,99201.58
2022-12-12T21:34:25.219Z,99203.60
2022-12-12T21:36:57.598Z,99207.84
2022-12-12T21:39:30.721Z,99212.91
2022-12-12T21:42:02.519Z,99215.70
2022-12-12T21:44:34.569Z,99220.44
2022-12-12T21:47:09.481Z,99223.73
2022-12-12T21:49:41.472Z,99224.30
2022-12-12T21:52:15.267Z,99224.54
2022-12-12T21:54:47.116Z,99223.86
2022-12-12T21:57:24.639Z,99221.95
2022-12-12T21:59:57.230Z,99225.62
2022-12-12T22:02:29.178Z,99225.16
2022-12-12T22:05:02.609Z,99232.73
2022-12-12T22:07:36.256Z,99230.14
2022-12-12T22:10:11.100Z,99228.70
2022-12-12T22:12:43.782Z,99228.61
2022-12-12T22:15:29.314Z,99230.74
2022-12-12T22:18:01.309Z,99235.34
2022-12-12T22:20:35.981Z,99235.06
2022-12-12T22:23:08.280Z,99239.63
2022-12-12T22:25:40.191Z,99241.86
2022-12-12T22:28:12.601Z,99244.00
2022-12-12T22:30:45.368Z,99248.81
2022-12-12T22:33:17.850Z,99246.48
2022-12-12T22:35:49.849Z,99250.38
2022-12-12T22:38:21.815Z,99252.59
2022-12-12T22:40:56.849Z,99252.05
2022-12-12T22:43:28.412Z,99249.73
2022-12-12T22:46:04.030Z,99250.43
2022-12-12T22:48:36.642Z,99254.23
2022-12-12T22:51:15.247Z,99251.26
2022-12-12T22:53:47.967Z,99256.52
2022-12-12T22:56:19.641Z,99260.80
2022-12-12T22:58:51.246Z,99262.19
2022-12-12T23:01:24.559Z,99266.95
2022-12-12T23:03:56.799Z,99268.13
2022-12-12T23:06:29.700Z,99269.69
2022-12-12T23:09:03.241Z,99267.95
2022-12-12T23:11:35.389Z,99270.62
2022-12-12T23:14:07.832Z,99273.61
2022-12-12T23:16:39.558Z,99278.01
2022-12-12T23:19:12.137Z,99278.71
2022-12-12T23:21:44.338Z,99282.28
2022-12-12T23:24:16.164Z,99283.77
2022-12-12T23:26:47.859Z,99284.21
2022-12-12T23:29:20.831Z,99294.88
2022-12-12T23:31:53.354Z,99301.99
2022-12-12T23:34:25.649Z,99305.77
2022-12-12T23:36:58.526Z,99303.44
2022-12-12T23:39:31.128Z,99309.11
2022-12-12T23:42:03.351Z,99310.25
2022-12-12T23:44:35.918Z,99310.65
2022-12-12T23:47:07.807Z,99313.73
2022-12-12T23:49:39.829Z,99312.29
2022-12-12T23:52:12.221Z,99313.99
2022-12-12T23:54:44.232Z,99318.84
2022-12-12T23:57:15.986Z,99324.31
2022-12-12T23:59:47.584Z,99328.49
